createdAt,value
2022-08-03T00:00:50.384Z,2.58
2022-08-03T00:03:36.148Z,2.50
2022-08-03T00:06:22.190Z,2.67
2022-08-03T00:09:08.159Z,2.00
2022-08-03T00:11:54.368Z,2.22
2022-08-03T00:14:40.345Z,2.40
2022-08-03T00:17:26.852Z,1.90
2022-08-03T00:20:13.085Z,2.28
2022-08-03T00:22:58.854Z,2.20
2022-08-03T00:25:44.924Z,2.10
2022-08-03T00:28:31.149Z,2.03
2022-08-03T00:31:16.883Z,2.03
2022-08-03T00:34:11.047Z,3.00
2022-08-03T00:36:58.449Z,1.98
2022-08-03T00:39:47.249Z,2.88
2022-08-03T00:42:33.256Z,2.30
2022-08-03T00:45:23.021Z,1.90
2022-08-03T00:48:32.215Z,2.00
2022-08-03T00:51:17.313Z,2.03
2022-08-03T00:54:03.216Z,1.75
2022-08-03T00:56:59.263Z,1.90
2022-08-03T00:59:46.550Z,1.80
2022-08-03T01:02:33.294Z,2.10
2022-08-03T01:05:20.454Z,1.67
2022-08-03T01:08:46.661Z,1.80
2022-08-03T01:11:59.923Z,1.83
2022-08-03T01:14:58.577Z,1.65
2022-08-03T01:17:55.270Z,1.88
2022-08-03T01:20:47.257Z,1.60
2022-08-03T01:23:49.215Z,1.75
2022-08-03T01:26:55.926Z,1.70
2022-08-03T01:30:01.777Z,1.60
2022-08-03T01:33:01.827Z,2.05
2022-08-03T01:35:54.359Z,1.50
2022-08-03T01:38:44.393Z,1.60
2022-08-03T01:41:44.341Z,1.90
2022-08-03T01:44:33.934Z,1.80
2022-08-03T01:47:22.448Z,2.08
2022-08-03T01:50:10.746Z,2.15
2022-08-03T01:52:58.475Z,1.70
2022-08-03T01:55:47.430Z,2.10
2022-08-03T01:58:36.311Z,1.75
2022-08-03T02:01:23.678Z,1.83
2022-08-03T02:04:10.822Z,1.77
2022-08-03T02:07:01.711Z,1.88
2022-08-03T02:09:52.754Z,1.95
2022-08-03T02:12:39.805Z,2.10
2022-08-03T02:15:27.135Z,1.85
2022-08-03T02:18:14.746Z,1.80
2022-08-03T02:21:05.486Z,1.90
2022-08-03T02:23:57.117Z,2.00
2022-08-03T02:26:43.865Z,2.00
2022-08-03T02:29:40.286Z,1.92
2022-08-03T02:32:34.371Z,2.15
2022-08-03T02:35:22.845Z,2.00
2022-08-03T02:38:11.437Z,2.08
2022-08-03T02:40:59.128Z,2.10
2022-08-03T02:44:05.983Z,1.83
2022-08-03T02:47:06.790Z,1.92
2022-08-03T02:49:54.457Z,2.30
2022-08-03T02:52:42.073Z,2.17
2022-08-03T02:55:29.528Z,2.22
2022-08-03T02:58:19.697Z,2.17
2022-08-03T03:01:06.088Z,2.10
2022-08-03T03:03:53.765Z,2.03
2022-08-03T03:06:41.197Z,2.13
2022-08-03T03:09:40.359Z,2.35
2022-08-03T03:12:28.349Z,2.40
2022-08-03T03:15:14.030Z,2.13
2022-08-03T03:18:01.070Z,2.05
2022-08-03T03:20:50.357Z,2.13
2022-08-03T03:23:38.302Z,2.28
2022-08-03T03:26:24.153Z,2.13
2022-08-03T03:29:09.970Z,2.65
2022-08-03T03:31:57.351Z,2.47
2022-08-03T03:34:44.302Z,2.10
2022-08-03T03:37:30.512Z,3.00
2022-08-03T03:40:16.177Z,2.50
2022-08-03T03:43:01.919Z,2.65
2022-08-03T03:45:48.457Z,3.00
2022-08-03T03:48:34.359Z,2.67
2022-08-03T03:51:19.932Z,2.70
2022-08-03T03:54:08.457Z,2.70
2022-08-03T03:56:54.401Z,2.63
2022-08-03T03:59:43.963Z,2.50
2022-08-03T04:02:30.234Z,2.83
2022-08-03T04:05:34.808Z,2.38
2022-08-03T04:08:39.193Z,2.50
2022-08-03T04:11:34.648Z,2.58
2022-08-03T04:14:25.614Z,3.13
2022-08-03T04:17:13.634Z,2.60
2022-08-03T04:20:01.595Z,2.40
2022-08-03T04:22:51.327Z,3.55
2022-08-03T04:25:40.053Z,2.78
2022-08-03T04:28:30.920Z,2.35
2022-08-03T04:31:20.703Z,2.30
2022-08-03T04:34:08.178Z,3.00
2022-08-03T04:36:59.066Z,2.60
2022-08-03T04:39:48.493Z,2.17
2022-08-03T04:42:36.118Z,2.70
2022-08-03T04:45:22.520Z,2.63
2022-08-03T04:48:08.809Z,2.30
2022-08-03T04:50:54.905Z,2.20
2022-08-03T04:53:41.075Z,2.53
2022-08-03T04:56:27.327Z,2.88
2022-08-03T04:59:13.328Z,2.50
2022-08-03T05:01:59.553Z,2.45
2022-08-03T05:04:46.530Z,2.45
2022-08-03T05:07:35.915Z,2.33
2022-08-03T05:10:22.074Z,2.50
2022-08-03T05:13:12.057Z,2.78
2022-08-03T05:15:58.280Z,2.20
2022-08-03T05:18:45.034Z,2.50
2022-08-03T05:21:41.741Z,2.80
2022-08-03T05:24:36.837Z,2.50
2022-08-03T05:27:22.401Z,2.20
2022-08-03T05:30:29.787Z,4.50
2022-08-03T05:33:15.089Z,5.32
2022-08-03T05:36:04.162Z,4.97
2022-08-03T05:38:50.408Z,3.08
2022-08-03T05:41:36.808Z,2.53
2022-08-03T05:44:25.486Z,2.45
2022-08-03T05:47:10.929Z,2.30
2022-08-03T05:49:56.568Z,2.05
2022-08-03T05:52:43.365Z,2.05
2022-08-03T05:55:29.234Z,1.90
2022-08-03T05:58:15.619Z,2.10
2022-08-03T06:01:02.865Z,2.20
2022-08-03T06:03:49.160Z,2.72
2022-08-03T06:06:35.382Z,2.72
2022-08-03T06:09:21.386Z,2.45
2022-08-03T06:12:10.098Z,2.60
2022-08-03T06:14:59.478Z,2.70
2022-08-03T06:17:49.826Z,2.80
2022-08-03T06:20:35.392Z,3.17
2022-08-03T06:23:21.285Z,3.10
2022-08-03T06:26:06.930Z,3.63
2022-08-03T06:28:54.380Z,3.10
2022-08-03T06:31:40.084Z,3.40
2022-08-03T06:34:32.577Z,4.35
2022-08-03T06:37:21.195Z,3.92
2022-08-03T06:40:07.326Z,4.10
2022-08-03T06:42:53.602Z,3.80
2022-08-03T06:45:39.689Z,3.20
2022-08-03T06:48:25.112Z,4.38
2022-08-03T06:51:11.496Z,3.55
2022-08-03T06:53:57.334Z,3.83
2022-08-03T06:56:43.235Z,3.58
2022-08-03T07:00:10.409Z,3.65
2022-08-03T07:02:35.753Z,3.63
2022-08-03T07:05:21.870Z,3.50
2022-08-03T07:08:07.861Z,4.13
2022-08-03T07:10:53.622Z,3.63
2022-08-03T07:13:41.251Z,9.88
2022-08-03T07:16:27.309Z,6.53
2022-08-03T07:19:13.074Z,4.32
2022-08-03T07:22:02.089Z,4.35
2022-08-03T07:24:48.437Z,4.03
2022-08-03T07:27:34.537Z,4.28
2022-08-03T07:30:20.633Z,3.90
2022-08-03T07:33:07.992Z,5.93
2022-08-03T07:35:54.173Z,4.50
2022-08-03T07:38:40.003Z,5.90
2022-08-03T07:41:26.234Z,5.13
2022-08-03T07:44:12.391Z,4.53
2022-08-03T07:46:57.958Z,4.45
2022-08-03T07:49:44.705Z,4.93
2022-08-03T07:52:48.701Z,4.63
2022-08-03T07:55:35.290Z,5.22
2022-08-03T07:58:24.385Z,5.80
2022-08-03T08:01:10.355Z,7.40
2022-08-03T08:04:00.925Z,5.68
2022-08-03T08:06:46.478Z,5.03
2022-08-03T08:09:32.038Z,6.30
2022-08-03T08:12:18.546Z,6.40
2022-08-03T08:15:04.633Z,5.32
2022-08-03T08:17:53.580Z,5.57
2022-08-03T08:20:39.815Z,5.43
2022-08-03T08:23:42.799Z,4.68
2022-08-03T08:26:30.386Z,4.80
2022-08-03T08:29:15.986Z,5.40
2022-08-03T08:32:02.197Z,5.18
2022-08-03T08:34:47.961Z,4.25
2022-08-03T08:37:34.356Z,4.90
2022-08-03T08:40:22.228Z,4.40
2022-08-03T08:43:07.932Z,3.85
2022-08-03T08:45:55.794Z,3.33
2022-08-03T08:48:43.950Z,3.50
2022-08-03T08:51:59.077Z,2.58
2022-08-03T08:57:42.933Z,2.60
2022-08-03T09:00:30.935Z,1.98
2022-08-03T09:03:22.379Z,2.58
2022-08-03T09:06:16.069Z,3.00
2022-08-03T09:09:02.100Z,3.10
2022-08-03T09:12:00.942Z,2.60
2022-08-03T09:15:15.863Z,2.17
2022-08-03T09:18:03.198Z,2.72
2022-08-03T09:20:49.161Z,2.72
2022-08-03T09:24:01.947Z,1.95
2022-08-03T09:26:52.189Z,3.85
2022-08-03T09:29:40.061Z,2.20
2022-08-03T09:32:26.025Z,2.08
2022-08-03T09:35:13.439Z,2.30
2022-08-03T09:38:19.890Z,1.67
2022-08-03T09:41:18.274Z,1.83
2022-08-03T09:44:04.034Z,2.15
2022-08-03T09:46:53.942Z,2.40
2022-08-03T09:49:41.658Z,2.40
2022-08-03T09:52:52.107Z,1.92
2022-08-03T09:56:34.684Z,2.05
2022-08-03T09:58:48.026Z,1.88
2022-08-03T10:01:35.438Z,1.50
2022-08-03T10:04:22.229Z,2.40
2022-08-03T10:07:11.782Z,2.10
2022-08-03T10:10:31.199Z,1.65
2022-08-03T10:13:05.678Z,2.00
2022-08-03T10:16:21.202Z,2.10
2022-08-03T10:18:57.686Z,1.70
2022-08-03T10:21:50.322Z,1.90
2022-08-03T10:24:37.433Z,2.20
2022-08-03T10:27:25.072Z,1.90
2022-08-03T10:30:12.008Z,2.25
2022-08-03T10:33:49.289Z,2.17
2022-08-03T10:36:24.613Z,2.10
2022-08-03T10:39:16.110Z,2.63
2022-08-03T10:42:03.701Z,2.03
2022-08-03T10:45:00.600Z,1.73
2022-08-03T10:47:51.444Z,1.75
2022-08-03T10:50:38.694Z,2.15
2022-08-03T10:53:54.160Z,2.50
2022-08-03T10:57:01.869Z,1.80
2022-08-03T11:00:02.003Z,1.88
2022-08-03T11:03:11.610Z,1.60
2022-08-03T11:06:19.155Z,1.75
2022-08-03T11:09:10.620Z,2.00
2022-08-03T11:11:56.689Z,1.70
2022-08-03T11:14:47.712Z,2.50
2022-08-03T11:17:46.398Z,2.33
2022-08-03T11:20:57.329Z,1.92
2022-08-03T11:24:04.486Z,1.92
2022-08-03T11:27:14.133Z,1.70
2022-08-03T11:30:27.573Z,1.88
2022-08-03T11:36:16.480Z,2.40
2022-08-03T11:39:18.058Z,1.88
2022-08-03T11:42:23.908Z,2.00
2022-08-03T11:45:10.324Z,1.80
2022-08-03T11:47:58.549Z,2.20
2022-08-03T11:50:45.454Z,1.67
2022-08-03T11:53:31.394Z,1.95
2022-08-03T11:56:17.498Z,2.10
2022-08-03T11:59:18.546Z,1.83
2022-08-03T12:02:11.887Z,1.50
2022-08-03T12:05:01.259Z,1.70
2022-08-03T12:08:03.735Z,1.70
2022-08-03T12:10:52.218Z,1.60
2022-08-03T12:14:36.755Z,1.77
2022-08-03T12:16:48.647Z,1.70
2022-08-03T12:19:43.711Z,1.50
2022-08-03T12:22:39.752Z,1.50
2022-08-03T12:25:38.847Z,1.42
2022-08-03T12:28:36.519Z,1.60
2022-08-03T12:31:25.126Z,1.73
2022-08-03T12:34:11.374Z,1.60
2022-08-03T12:36:57.819Z,1.50
2022-08-03T12:40:02.090Z,1.60
2022-08-03T12:42:51.752Z,1.60
2022-08-03T12:45:37.742Z,1.60
2022-08-03T12:48:23.782Z,1.65
2022-08-03T12:51:13.523Z,1.40
2022-08-03T12:53:59.860Z,1.33
2022-08-03T12:57:08.370Z,1.58
2022-08-03T12:59:55.992Z,1.52
2022-08-03T13:02:41.850Z,1.48
2022-08-03T13:05:32.690Z,1.50
2022-08-03T13:08:24.602Z,1.50
2022-08-03T13:11:20.705Z,1.50
2022-08-03T13:14:07.232Z,1.40
2022-08-03T13:16:52.765Z,1.45
2022-08-03T13:19:39.833Z,1.50
2022-08-03T13:22:30.240Z,1.50
2022-08-03T13:25:16.192Z,1.98
2022-08-03T13:28:06.102Z,1.50
2022-08-03T13:30:54.784Z,1.58
2022-08-03T13:33:41.012Z,1.38
2022-08-03T13:36:26.529Z,1.95
2022-08-03T13:39:16.217Z,1.50
2022-08-03T13:42:05.803Z,1.50
2022-08-03T13:44:51.737Z,1.42
2022-08-03T13:47:38.098Z,1.20
2022-08-03T13:50:24.223Z,1.40
2022-08-03T13:53:10.481Z,1.55
2022-08-03T13:55:55.745Z,1.30
2022-08-03T13:58:41.372Z,1.52
2022-08-03T14:01:54.478Z,1.20
2022-08-03T14:04:33.693Z,1.30
2022-08-03T14:07:20.326Z,1.30
2022-08-03T14:10:07.169Z,1.20
2022-08-03T14:12:52.741Z,1.40
2022-08-03T14:15:38.878Z,1.27
2022-08-03T14:18:27.896Z,1.60
2022-08-03T14:21:15.200Z,1.10
2022-08-03T14:24:01.207Z,1.20
2022-08-03T14:26:47.182Z,1.30
2022-08-03T14:29:33.204Z,1.30
2022-08-03T14:32:19.044Z,1.15
2022-08-03T14:35:05.596Z,1.27
2022-08-03T14:37:51.973Z,1.23
2022-08-03T14:40:37.794Z,1.10
2022-08-03T14:43:24.869Z,1.35
2022-08-03T14:46:10.280Z,1.52
2022-08-03T14:50:34.340Z,1.23
2022-08-03T14:52:02.062Z,1.30
2022-08-03T14:54:47.514Z,1.45
2022-08-03T14:57:33.054Z,1.33
2022-08-03T15:00:19.044Z,1.58
2022-08-03T15:03:05.005Z,1.40
2022-08-03T15:05:52.867Z,1.35
2022-08-03T15:08:39.019Z,1.50
2022-08-03T15:11:25.049Z,1.85
2022-08-03T15:14:10.786Z,1.20
2022-08-03T15:16:59.667Z,1.30
2022-08-03T15:20:00.465Z,1.52
2022-08-03T15:22:50.326Z,1.50
2022-08-03T15:26:31.914Z,1.40
2022-08-03T15:28:41.957Z,1.10
2022-08-03T15:31:27.498Z,1.25
2022-08-03T15:34:13.171Z,1.35
2022-08-03T15:36:58.907Z,1.50
2022-08-03T15:39:59.659Z,1.23
2022-08-03T15:42:46.694Z,1.30
2022-08-03T15:45:35.333Z,1.10
2022-08-03T15:48:26.634Z,1.40
2022-08-03T15:51:12.489Z,1.40
2022-08-03T15:53:58.504Z,1.40
2022-08-03T15:56:45.371Z,1.63
2022-08-03T15:59:31.038Z,1.80
2022-08-03T16:02:16.758Z,1.33
2022-08-03T16:05:02.498Z,1.30
2022-08-03T16:08:02.525Z,1.10
2022-08-03T16:10:50.373Z,1.42
2022-08-03T16:14:13.726Z,1.33
2022-08-03T16:16:43.905Z,1.48
2022-08-03T16:19:29.658Z,1.38
2022-08-03T16:22:17.348Z,1.30
2022-08-03T16:25:05.892Z,1.50
2022-08-03T16:28:07.680Z,1.60
2022-08-03T16:30:58.265Z,1.33
2022-08-03T16:33:44.226Z,1.80
2022-08-03T16:36:34.638Z,1.58
2022-08-03T16:39:20.960Z,1.45
2022-08-03T16:42:06.734Z,1.55
2022-08-03T16:44:52.625Z,1.30
2022-08-03T16:47:38.334Z,1.42
2022-08-03T16:50:26.125Z,1.70
2022-08-03T16:53:16.980Z,1.55
2022-08-03T16:56:09.476Z,1.80
2022-08-03T16:58:56.264Z,1.52
2022-08-03T17:01:42.352Z,1.67
2022-08-03T17:04:34.350Z,1.30
2022-08-03T17:07:21.044Z,1.67
2022-08-03T17:10:08.722Z,1.60
2022-08-03T17:12:55.361Z,1.45
2022-08-03T17:16:00.814Z,1.45
2022-08-03T17:18:56.747Z,1.65
2022-08-03T17:21:50.805Z,1.50
2022-08-03T17:24:41.473Z,1.67
2022-08-03T17:28:49.790Z,1.60
2022-08-03T17:30:55.254Z,1.40
2022-08-03T17:33:41.072Z,1.40
2022-08-03T17:37:03.306Z,1.38
2022-08-03T17:40:03.912Z,1.40
2022-08-03T17:42:50.853Z,1.30
2022-08-03T17:45:52.139Z,1.50
2022-08-03T17:48:41.242Z,1.45
2022-08-03T17:52:02.972Z,1.35
2022-08-03T17:55:56.494Z,1.42
2022-08-03T17:58:54.968Z,1.80
2022-08-03T18:02:11.536Z,1.83
2022-08-03T18:05:16.817Z,1.90
2022-08-03T18:08:06.903Z,1.65
2022-08-03T18:11:14.325Z,1.75
2022-08-03T18:14:37.472Z,2.00
2022-08-03T18:17:55.496Z,1.33
2022-08-03T18:20:40.868Z,1.48
2022-08-03T18:23:37.330Z,1.67
2022-08-03T18:26:24.390Z,1.63
2022-08-03T18:29:12.926Z,1.73
2022-08-03T18:32:06.046Z,1.63
2022-08-03T18:35:02.629Z,1.60
2022-08-03T18:40:38.213Z,1.73
2022-08-03T18:43:46.497Z,1.33
2022-08-03T18:47:06.978Z,1.63
2022-08-03T18:49:59.636Z,1.45
2022-08-03T18:53:16.346Z,1.63
2022-08-03T18:56:20.635Z,1.88
2022-08-03T18:59:30.163Z,2.03
2022-08-03T19:02:37.990Z,2.00
2022-08-03T19:05:56.434Z,2.03
2022-08-03T19:08:47.889Z,2.00
2022-08-03T19:12:12.364Z,1.35
2022-08-03T19:14:53.386Z,1.70
2022-08-03T19:17:52.803Z,1.80
2022-08-03T19:20:40.182Z,1.65
2022-08-03T19:23:26.016Z,1.90
2022-08-03T19:26:30.386Z,2.05
2022-08-03T19:29:18.604Z,2.13
2022-08-03T19:32:09.519Z,2.20
2022-08-03T19:34:57.099Z,2.67
2022-08-03T19:37:45.881Z,2.58
2022-08-03T19:40:34.137Z,2.47
2022-08-03T19:43:32.987Z,2.58
2022-08-03T19:46:20.970Z,2.47
2022-08-03T19:49:15.297Z,2.45
2022-08-03T19:52:03.579Z,2.25
2022-08-03T19:54:53.910Z,2.22
2022-08-03T19:57:43.883Z,2.40
2022-08-03T20:00:37.008Z,2.15
2022-08-03T20:03:42.935Z,1.95
2022-08-03T20:06:30.882Z,1.80
2022-08-03T20:09:19.430Z,1.70
2022-08-03T20:12:05.673Z,1.77
2022-08-03T20:14:52.115Z,2.33
2022-08-03T20:17:56.662Z,2.10
2022-08-03T20:20:48.159Z,3.15
2022-08-03T20:23:38.822Z,3.40
2022-08-03T20:26:48.829Z,3.20
2022-08-03T20:30:06.689Z,2.83
2022-08-03T20:32:52.930Z,2.97
2022-08-03T20:35:41.884Z,2.75
2022-08-03T20:38:31.831Z,2.80
2022-08-03T20:41:18.276Z,2.63
2022-08-03T20:44:04.667Z,2.40
2022-08-03T20:46:59.828Z,2.40
2022-08-03T20:49:46.683Z,2.15
2022-08-03T20:52:33.374Z,2.20
2022-08-03T20:55:20.307Z,2.40
2022-08-03T20:58:07.216Z,2.88
2022-08-03T21:00:53.748Z,2.47
2022-08-03T21:03:40.516Z,2.45
2022-08-03T21:06:33.394Z,2.20
2022-08-03T21:09:22.857Z,2.22
2022-08-03T21:13:13.184Z,2.38
2022-08-03T21:16:11.389Z,2.35
2022-08-03T21:18:38.089Z,2.03
2022-08-03T21:21:24.946Z,2.28
2022-08-03T21:24:13.698Z,2.42
2022-08-03T21:26:59.941Z,2.05
2022-08-03T21:29:53.732Z,2.25
2022-08-03T21:32:41.938Z,2.00
2022-08-03T21:35:28.414Z,1.80
2022-08-03T21:38:29.740Z,2.40
2022-08-03T21:41:15.706Z,2.03
2022-08-03T21:44:02.626Z,1.90
2022-08-03T21:46:53.912Z,1.83
2022-08-03T21:49:51.893Z,1.92
2022-08-03T21:52:51.357Z,1.98
2022-08-03T21:55:40.081Z,1.92
2022-08-03T21:58:32.725Z,2.28
2022-08-03T22:01:19.995Z,2.00
2022-08-03T22:04:07.225Z,2.08
2022-08-03T22:06:55.628Z,1.92
2022-08-03T22:09:51.236Z,1.80
2022-08-03T22:12:37.762Z,2.00
2022-08-03T22:15:23.376Z,2.25
2022-08-03T22:18:09.798Z,2.00
2022-08-03T22:20:56.301Z,1.80
2022-08-03T22:23:47.616Z,1.80
2022-08-03T22:26:35.831Z,2.10
2022-08-03T22:29:21.517Z,2.05
2022-08-03T22:32:08.084Z,1.70
2022-08-03T22:34:54.246Z,1.63
2022-08-03T22:37:41.306Z,1.85
2022-08-03T22:40:27.880Z,1.70
2022-08-03T22:43:13.540Z,1.67
2022-08-03T22:46:09.680Z,1.88
2022-08-03T22:49:00.285Z,1.88
2022-08-03T22:51:47.199Z,1.65
2022-08-03T22:54:33.638Z,1.85
2022-08-03T22:57:21.523Z,1.70
2022-08-03T23:00:12.954Z,1.70
2022-08-03T23:03:01.723Z,1.70
2022-08-03T23:06:00.839Z,1.80
2022-08-03T23:08:50.315Z,1.80
2022-08-03T23:11:42.840Z,1.67
2022-08-03T23:14:36.234Z,1.52
2022-08-03T23:17:24.068Z,1.60
2022-08-03T23:20:10.689Z,1.80
2022-08-03T23:22:59.885Z,1.73
2022-08-03T23:25:46.808Z,1.42
2022-08-03T23:28:32.449Z,1.88
2022-08-03T23:31:20.940Z,1.85
2022-08-03T23:34:31.497Z,1.98
2022-08-03T23:37:18.991Z,1.63
2022-08-03T23:40:05.736Z,1.70
2022-08-03T23:42:52.125Z,2.05
2022-08-03T23:45:41.165Z,1.90
2022-08-03T23:48:27.456Z,1.60
2022-08-03T23:51:47.621Z,1.60
2022-08-03T23:54:52.018Z,1.98
2022-08-03T23:57:43.479Z,2.08
